Time;durP1;ratioP1;P1;durP2;ratioP2;P2;SDS_P1;SDS_P2;PMS_P1;PMS_P2;Temp;Humidity;BMP_temperature;BMP_pressure;BME280_temperature;BME280_humidity;BME280_pressure;Samples;Min_cycle;Max_cycle;Signal;HPM_P1;HPM_P2
2023/08/15 00:03:13;;;;;;;22.70;14.90;;;;;;;25.53;88.83;100596.88;668584;1267;140951;-78
2023/08/15 00:18:17;;;;;;;19.10;14.40;;;;;;;25.31;89.86;100603.24;670656;1267;142295;-78
2023/08/15 00:33:20;;;;;;;22.40;13.80;;;;;;;25.01;90.86;100598.51;670916;1270;140740;-78
2023/08/15 00:48:29;;;;;;;20.40;14.70;;;;;;;24.79;91.38;100600.77;670369;1263;140889;-78
2023/08/15 01:03:33;;;;;;;19.30;13.80;;;;;;;24.60;92.34;100600.88;671129;1260;140263;-78
2023/08/15 01:18:41;;;;;;;26.00;14.60;;;;;;;24.68;92.29;100595.58;672185;1264;140417;-78
2023/08/15 01:34:07;;;;;;;17.80;13.40;;;;;;;24.80;92.90;100576.83;671987;1272;140856;-78
2023/08/15 01:49:10;;;;;;;20.90;11.20;;;;;;;24.58;93.77;100576.02;669947;1266;140298;-78
2023/08/15 02:04:14;;;;;;;20.60;14.10;;;;;;;24.52;93.01;100581.68;670639;1261;140774;-78
2023/08/15 02:19:17;;;;;;;16.80;13.30;;;;;;;24.42;92.95;100591.77;670677;1264;140251;-78
2023/08/15 02:34:20;;;;;;;19.10;14.40;;;;;;;24.26;93.17;100585.42;670080;1260;140706;-78
2023/08/15 02:49:23;;;;;;;19.90;14.50;;;;;;;24.06;94.15;100587.14;670252;1264;140446;-78
2023/08/15 03:04:26;;;;;;;20.60;15.30;;;;;;;24.01;94.04;100587.67;670970;1264;140566;-78
2023/08/15 03:19:31;;;;;;;17.50;14.50;;;;;;;24.16;94.23;100596.09;670844;1267;140896;-78
2023/08/15 03:34:34;;;;;;;20.70;15.10;;;;;;;24.35;93.95;100593.38;671246;1263;141371;-78
2023/08/15 03:49:37;;;;;;;19.50;15.30;;;;;;;24.48;93.76;100596.94;673094;1264;140554;-78
2023/08/15 04:04:41;;;;;;;16.40;14.00;;;;;;;24.55;94.05;100596.30;672789;1266;140967;-78
2023/08/15 04:19:44;;;;;;;19.70;15.00;;;;;;;24.65;94.03;100595.08;671903;1263;140261;-78
2023/08/15 04:34:49;;;;;;;22.60;14.00;;;;;;;24.86;93.96;100602.08;674449;1264;140038;-78
2023/08/15 04:49:53;;;;;;;22.80;15.00;;;;;;;25.51;91.81;100606.53;670007;1263;139641;-77
2023/08/15 05:04:57;;;;;;;30.00;23.10;;;;;;;25.47;92.61;100610.67;673659;1261;140266;-78
2023/08/15 05:20:00;;;;;;;19.10;13.50;;;;;;;26.13;91.76;100616.98;671016;1260;139610;-78
2023/08/15 05:35:06;;;;;;;15.90;11.50;;;;;;;27.13;88.63;100625.17;670828;1263;141944;-79
2023/08/15 05:50:09;;;;;;;15.90;12.10;;;;;;;31.91;79.89;100650.63;669042;1260;142384;-78
2023/08/15 06:05:14;;;;;;;10.80;6.70;;;;;;;32.02;68.91;100651.23;669908;1276;139407;-78
2023/08/15 06:20:21;;;;;;;14.10;7.00;;;;;;;32.31;62.93;100643.00;669073;1264;139629;-77
2023/08/15 06:35:28;;;;;;;13.00;7.00;;;;;;;32.93;59.92;100640.00;669275;1265;141035;-77
2023/08/15 06:50:32;;;;;;;7.20;6.40;;;;;;;33.42;57.96;100652.38;669009;1263;138545;-77
2023/08/15 07:05:35;;;;;;;11.50;6.20;;;;;;;34.86;56.55;100653.93;669854;1264;139773;-78
2023/08/15 07:20:39;;;;;;;7.50;5.50;;;;;;;35.63;54.53;100640.42;671907;1262;140129;-77
2023/08/15 07:35:42;;;;;;;8.50;6.00;;;;;;;36.68;53.87;100627.59;676478;1262;140722;-75
2023/08/15 07:50:46;;;;;;;8.60;6.00;;;;;;;36.76;52.29;100633.02;670698;1265;141332;-75
2023/08/15 08:05:49;;;;;;;11.20;5.10;;;;;;;37.14;51.96;100625.79;670812;1265;141658;-76
2023/08/15 08:20:53;;;;;;;10.50;5.00;;;;;;;36.25;52.58;100612.91;670001;1265;140268;-77
2023/08/15 08:35:57;;;;;;;10.40;4.20;;;;;;;36.20;52.83;100607.19;670461;1263;140088;-77
2023/08/15 08:51:01;;;;;;;8.30;4.20;;;;;;;36.83;51.02;100591.50;671129;1267;139515;-78
2023/08/15 09:06:06;;;;;;;216.10;154.30;;;;;;;37.89;48.67;100586.59;673029;1267;138590;-77
2023/08/15 09:21:13;;;;;;;11.30;8.70;;;;;;;38.30;49.08;100580.90;672109;1272;140124;-78
2023/08/15 09:36:18;;;;;;;8.60;5.80;;;;;;;38.92;45.98;100575.53;671431;1265;140139;-79
2023/08/15 09:51:26;;;;;;;10.60;5.90;;;;;;;38.33;41.01;100561.35;674316;1265;141290;-78
2023/08/15 10:06:30;;;;;;;12.60;4.50;;;;;;;37.37;40.33;100558.84;674499;1266;138151;-77
2023/08/15 10:21:52;;;;;;;10.30;5.00;;;;;;;37.42;37.88;100555.09;671736;1265;138707;-79
2023/08/15 10:37:32;;;;;;;12.20;9.90;;;;;;;37.82;38.18;100551.42;673347;1263;139274;-78
2023/08/15 10:52:42;;;;;;;7.30;2.70;;;;;;;38.52;36.98;100550.08;671725;1268;138652;-77
2023/08/15 11:07:50;;;;;;;6.50;3.40;;;;;;;38.49;35.64;100552.67;672283;1265;138487;-78
2023/08/15 11:23:12;;;;;;;5.50;2.90;;;;;;;38.74;36.89;100553.00;674492;1265;138141;-77
2023/08/15 11:38:23;;;;;;;4.90;3.60;;;;;;;38.60;38.47;100552.52;672340;1266;139004;-76
2023/08/15 11:53:31;;;;;;;6.80;3.10;;;;;;;38.60;39.53;100551.65;672819;1265;138512;-78
2023/08/15 12:08:39;;;;;;;8.70;3.60;;;;;;;39.27;39.59;100550.33;670505;1265;139567;-76
2023/08/15 12:23:44;;;;;;;4.40;3.60;;;;;;;39.45;39.12;100539.28;671328;1266;139684;-78
2023/08/15 12:38:47;;;;;;;7.00;3.20;;;;;;;39.59;39.39;100529.96;671562;1268;140067;-78
2023/08/15 12:53:51;;;;;;;5.10;3.00;;;;;;;39.79;39.11;100519.33;676029;1265;139417;-76
2023/08/15 13:08:54;;;;;;;6.60;3.50;;;;;;;39.47;39.00;100512.59;676682;1269;139139;-77
2023/08/15 13:23:58;;;;;;;4.70;2.60;;;;;;;39.88;39.73;100500.76;671708;1264;139222;-78
2023/08/15 13:39:02;;;;;;;6.10;3.00;;;;;;;40.25;38.94;100491.23;673275;1265;138745;-78
2023/08/15 13:54:06;;;;;;;3.50;2.50;;;;;;;40.17;38.45;100486.20;670338;1266;138650;-78
2023/08/15 14:09:10;;;;;;;4.00;2.90;;;;;;;39.86;36.71;100475.83;672552;1266;139190;-78
2023/08/15 14:24:14;;;;;;;6.50;3.00;;;;;;;40.16;37.86;100473.55;669558;1265;139430;-77
2023/08/15 14:39:18;;;;;;;3.80;2.70;;;;;;;39.81;37.98;100460.35;668970;1276;140224;-78
2023/08/15 14:54:22;;;;;;;4.60;3.30;;;;;;;39.87;39.03;100446.54;670460;1266;139723;-79
2023/08/15 15:09:26;;;;;;;7.20;3.20;;;;;;;40.08;39.61;100446.20;669164;1268;139414;-78
2023/08/15 15:24:30;;;;;;;10.20;3.50;;;;;;;39.61;39.43;100448.86;671585;1264;138710;-78
2023/08/15 15:39:34;;;;;;;4.50;3.80;;;;;;;39.51;40.20;100444.16;672498;1268;139689;-77
2023/08/15 15:54:37;;;;;;;5.40;3.10;;;;;;;38.93;41.11;100444.89;675993;1269;184124;-77
2023/08/15 16:09:42;;;;;;;6.40;3.70;;;;;;;38.79;41.73;100439.46;674348;1266;140190;-79
2023/08/15 16:24:45;;;;;;;7.50;3.50;;;;;;;38.47;41.94;100434.77;670577;1267;140935;-79
2023/08/15 16:39:50;;;;;;;10.60;4.50;;;;;;;38.07;42.59;100434.48;670247;1276;139521;-79
2023/08/15 16:54:55;;;;;;;6.20;3.90;;;;;;;38.06;43.19;100433.52;669507;1266;140604;-80
2023/08/15 17:10:00;;;;;;;7.70;4.70;;;;;;;37.39;44.25;100438.52;668484;1267;140278;-77
2023/08/15 17:25:05;;;;;;;9.80;4.30;;;;;;;36.88;45.23;100441.15;670058;1265;138019;-78
2023/08/15 17:40:10;;;;;;;6.90;4.80;;;;;;;36.20;46.54;100455.64;668290;1266;138330;-79
2023/08/15 17:55:14;;;;;;;8.40;4.80;;;;;;;35.49;47.70;100459.20;668390;1264;139916;-77
2023/08/15 18:10:19;;;;;;;15.60;9.60;;;;;;;34.71;48.67;100467.63;668987;1264;138786;-77
2023/08/15 18:25:27;;;;;;;18.80;7.30;;;;;;;33.65;50.49;100482.81;667385;1267;139640;-79
2023/08/15 18:40:34;;;;;;;20.30;6.30;;;;;;;32.64;51.80;100503.96;670989;1274;140156;-78
2023/08/15 18:55:44;;;;;;;12.60;5.30;;;;;;;32.25;53.50;100515.64;669112;1266;139961;-79
2023/08/15 19:10:48;;;;;;;14.20;5.90;;;;;;;31.87;54.44;100531.02;669943;1266;138601;-78
2023/08/15 19:25:55;;;;;;;35.20;21.90;;;;;;;31.45;55.01;100539.45;668693;1266;139402;-78
2023/08/15 19:41:00;;;;;;;14.10;5.70;;;;;;;31.05;56.50;100526.34;668375;1262;139799;-78
2023/08/15 19:56:09;;;;;;;19.40;5.90;;;;;;;30.67;57.32;100530.09;668082;1262;138699;-78
2023/08/15 20:11:14;;;;;;;8.60;4.60;;;;;;;30.46;57.86;100528.30;668324;1267;138992;-78
2023/08/15 20:26:22;;;;;;;19.00;6.00;;;;;;;30.34;57.60;100527.83;668196;1266;139723;-78
2023/08/15 20:41:28;;;;;;;12.50;6.30;;;;;;;30.19;58.15;100522.39;669332;1267;138639;-78
2023/08/15 20:56:32;;;;;;;9.80;5.70;;;;;;;29.96;57.75;100525.04;667641;1267;139805;-78
2023/08/15 21:11:37;;;;;;;8.40;5.10;;;;;;;29.79;58.14;100519.06;668310;1265;139910;-78
2023/08/15 21:26:43;;;;;;;8.20;4.30;;;;;;;29.74;58.05;100521.05;668163;1266;139251;-78
2023/08/15 21:41:47;;;;;;;8.00;5.10;;;;;;;29.86;56.76;100525.39;667565;1265;139277;-78
2023/08/15 21:56:51;;;;;;;8.10;4.40;;;;;;;29.55;56.53;100530.88;667279;1277;141695;-78
2023/08/15 22:11:55;;;;;;;7.20;5.00;;;;;;;29.14;57.40;100539.20;667306;1262;138261;-78
2023/08/15 22:26:59;;;;;;;7.80;4.40;;;;;;;29.24;57.11;100547.35;667432;1270;138318;-77
2023/08/15 22:42:03;;;;;;;9.60;5.50;;;;;;;29.48;56.78;100545.03;667588;1265;139387;-77
2023/08/15 22:57:06;;;;;;;8.30;6.00;;;;;;;29.54;57.08;100535.21;667411;1265;139084;-77
2023/08/15 23:12:09;;;;;;;12.00;5.90;;;;;;;29.53;57.18;100538.80;667317;1276;139568;-79
2023/08/15 23:27:13;;;;;;;8.80;5.90;;;;;;;29.28;57.95;100544.86;667304;1265;140067;-78
2023/08/15 23:42:16;;;;;;;9.00;5.10;;;;;;;29.00;58.45;100543.69;667495;1265;139634;-78
2023/08/15 23:57:20;;;;;;;11.70;6.70;;;;;;;28.83;59.05;100544.07;667233;1266;139723;-78
